Time;durP1;ratioP1;P1;durP2;ratioP2;P2;SDS_P1;SDS_P2;PMS_P1;PMS_P2;Temp;Humidity;BMP_temperature;BMP_pressure;BME280_temperature;BME280_humidity;BME280_pressure;Samples;Min_cycle;Max_cycle;Signal;HPM_P1;HPM_P2
2023/12/23 00:00:28;;;;;;;;;;;;;;;6.12;100.00;100947.91;5067400;28;19923;-75
2023/12/23 00:02:53;;;;;;;;;;;;;;;6.11;100.00;100942.69;5055706;28;19916;-78
2023/12/23 00:05:18;;;;;;;;;;;;;;;6.11;100.00;100945.31;5051248;28;20374;-78
2023/12/23 00:07:44;;;;;;;;;;;;;;;6.11;100.00;100951.38;5062516;28;20027;-78
2023/12/23 00:10:09;;;;;;;;;;;;;;;6.10;100.00;100947.00;5043100;28;19994;-77
2023/12/23 00:12:34;;;;;;;;;;;;;;;6.08;100.00;100951.34;5071774;28;19920;-78
2023/12/23 00:15:03;;;;;;;;;;;;;;;6.08;100.00;100953.94;5080358;28;19966;-77
2023/12/23 00:17:28;;;;;;;;;;;;;;;6.07;100.00;100944.38;5039641;28;19917;-78
2023/12/23 00:19:55;;;;;;;;;;;;;;;6.05;100.00;100935.72;5050991;28;20023;-77
2023/12/23 00:22:21;;;;;;;;;;;;;;;6.03;100.00;100940.91;5069748;28;20360;-77
2023/12/23 00:24:46;;;;;;;;;;;;;;;6.02;100.00;100933.06;5095922;28;20441;-77
2023/12/23 00:27:11;;;;;;;;;;;;;;;6.03;100.00;100940.00;5053259;28;19917;-78
2023/12/23 00:29:37;;;;;;;;;;;;;;;6.03;100.00;100925.28;5051679;28;19921;-78
2023/12/23 00:32:02;;;;;;;;;;;;;;;6.04;100.00;100939.16;5067210;28;19925;-77
2023/12/23 00:34:27;;;;;;;;;;;;;;;6.04;100.00;100944.38;5045385;28;19917;-80
2023/12/23 00:36:56;;;;;;;;;;;;;;;6.02;100.00;100938.25;5071747;28;19927;-78
2023/12/23 00:39:21;;;;;;;;;;;;;;;6.03;100.00;100934.81;5071532;28;20011;-78
2023/12/23 00:41:46;;;;;;;;;;;;;;;6.01;100.00;100931.34;5050039;28;20023;-76
2023/12/23 00:44:11;;;;;;;;;;;;;;;6.00;100.00;100937.38;5051913;28;20026;-77
2023/12/23 00:46:37;;;;;;;;;;;;;;;5.99;100.00;100925.22;5070851;28;20394;-78
2023/12/23 00:49:02;;;;;;;;;;;;;;;6.01;100.00;100923.53;5044533;28;20014;-79
2023/12/23 00:51:30;;;;;;;;;;;;;;;6.00;100.00;100921.78;5049053;28;20366;-76
2023/12/23 00:53:55;;;;;;;;;;;;;;;5.99;100.00;100907.03;5068165;28;19917;-78
2023/12/23 00:56:22;;;;;;;;;;;;;;;6.01;100.00;100902.72;5074537;28;19939;-76
2023/12/23 00:58:48;;;;;;;;;;;;;;;6.00;100.00;100903.56;5074182;28;19927;-75
2023/12/23 01:01:13;;;;;;;;;;;;;;;6.02;100.00;100902.72;5064038;28;19913;-75
2023/12/23 01:03:40;;;;;;;;;;;;;;;6.06;100.00;100911.41;5076755;28;20366;-74
2023/12/23 01:06:05;;;;;;;;;;;;;;;6.15;100.00;100916.72;5057506;28;19920;-74
2023/12/23 01:08:31;;;;;;;;;;;;;;;6.08;100.00;100920.13;5088473;28;20472;-74
2023/12/23 01:10:56;;;;;;;;;;;;;;;6.07;100.00;100905.38;5067885;28;20005;-75
2023/12/23 01:13:22;;;;;;;;;;;;;;;6.09;100.00;100903.63;5061224;28;19928;-77
2023/12/23 01:15:48;;;;;;;;;;;;;;;6.06;100.00;100898.41;5053290;28;19993;-77
2023/12/23 01:18:13;;;;;;;;;;;;;;;6.06;100.00;100895.81;5058034;28;20361;-77
2023/12/23 01:20:40;;;;;;;;;;;;;;;6.04;100.00;100889.72;5070561;28;19927;-77
2023/12/23 01:23:05;;;;;;;;;;;;;;;6.03;100.00;100880.19;5052612;28;20019;-77
2023/12/23 01:25:30;;;;;;;;;;;;;;;6.03;100.00;100882.78;5085786;28;20054;-77
2023/12/23 01:28:00;;;;;;;;;;;;;;;6.03;100.00;100878.47;5053068;28;19920;-78
2023/12/23 01:30:25;;;;;;;;;;;;;;;6.05;100.00;100871.53;5053960;28;19928;-77
2023/12/23 01:32:51;;;;;;;;;;;;;;;6.06;100.00;100877.59;5067028;28;20381;-77
2023/12/23 01:35:17;;;;;;;;;;;;;;;6.08;100.00;100878.50;5067404;28;19928;-77
2023/12/23 01:37:42;;;;;;;;;;;;;;;6.10;100.00;100876.75;5063775;28;19924;-78
2023/12/23 01:40:08;;;;;;;;;;;;;;;6.18;100.00;100862.09;5045353;28;19925;-78
2023/12/23 01:42:33;;;;;;;;;;;;;;;6.19;100.00;100858.63;5050340;28;20300;-78
2023/12/23 01:45:02;;;;;;;;;;;;;;;6.22;100.00;100857.75;5050971;28;19956;-74
2023/12/23 01:47:27;;;;;;;;;;;;;;;6.24;100.00;100856.91;5070361;28;19916;-74
2023/12/23 01:49:53;;;;;;;;;;;;;;;6.26;100.00;100851.72;5070332;28;19931;-74
2023/12/23 01:52:19;;;;;;;;;;;;;;;6.29;100.00;100848.25;5057805;28;20248;-74
2023/12/23 01:54:45;;;;;;;;;;;;;;;6.33;100.00;100844.81;5068486;28;19917;-78
2023/12/23 01:57:10;;;;;;;;;;;;;;;6.36;100.00;100845.69;5048969;28;19924;-77
2023/12/23 01:59:35;;;;;;;;;;;;;;;6.45;100.00;100854.41;5045782;28;19948;-75
2023/12/23 02:02:01;;;;;;;;;;;;;;;6.56;100.00;100839.72;5044354;28;19917;-76
2023/12/23 02:04:30;;;;;;;;;;;;;;;6.76;100.00;100837.22;5076795;28;20290;-76
2023/12/23 02:06:55;;;;;;;;;;;;;;;6.96;100.00;100828.59;5072689;28;19924;-75
2023/12/23 02:09:20;;;;;;;;;;;;;;;7.11;100.00;100839.03;5054828;28;19935;-76
2023/12/23 02:11:51;;;;;;;;;;;;;;;7.28;100.00;100824.34;5053500;28;20285;-76
2023/12/23 02:14:36;;;;;;;;;;;;;;;7.38;100.00;100824.34;5063112;28;19963;-80
2023/12/23 02:17:02;;;;;;;;;;;;;;;7.40;100.00;100827.84;5078815;28;19952;-75
2023/12/23 02:19:27;;;;;;;;;;;;;;;7.49;100.00;100833.03;5050080;28;19948;-73
2023/12/23 02:21:53;;;;;;;;;;;;;;;7.50;100.00;100829.56;5080553;28;20015;-74
2023/12/23 02:24:18;;;;;;;;;;;;;;;7.56;100.00;100823.50;5048233;28;19925;-77
2023/12/23 02:26:48;;;;;;;;;;;;;;;7.67;100.00;100821.75;5074860;28;19916;-74
2023/12/23 02:29:14;;;;;;;;;;;;;;;7.61;100.00;100821.75;5069148;28;19990;-76
2023/12/23 02:31:39;;;;;;;;;;;;;;;7.58;100.00;100827.81;5060985;28;19935;-75
2023/12/23 02:34:05;;;;;;;;;;;;;;;7.59;100.00;100826.09;5064257;28;20026;-75
2023/12/23 02:36:31;;;;;;;;;;;;;;;7.58;100.00;100827.81;5051679;28;19921;-75
2023/12/23 02:38:57;;;;;;;;;;;;;;;7.65;100.00;100809.59;5052726;28;20442;-78
2023/12/23 02:41:23;;;;;;;;;;;;;;;7.62;100.00;100811.31;5053993;28;19965;-75
2023/12/23 02:43:48;;;;;;;;;;;;;;;7.67;100.00;100806.13;5043959;28;20007;-74
2023/12/23 02:46:13;;;;;;;;;;;;;;;7.69;100.00;100811.31;5087885;28;20017;-76
2023/12/23 02:48:39;;;;;;;;;;;;;;;7.69;100.00;100798.28;5057379;28;19920;-75
2023/12/23 02:51:06;;;;;;;;;;;;;;;7.72;100.00;100793.06;5057157;28;20400;-76
2023/12/23 02:53:32;;;;;;;;;;;;;;;7.72;100.00;100785.25;5059169;28;20148;-78
2023/12/23 02:55:57;;;;;;;;;;;;;;;7.76;100.00;100795.66;5055430;28;19916;-75
2023/12/23 02:58:23;;;;;;;;;;;;;;;7.78;100.00;100796.50;5065464;28;19925;-75
2023/12/23 03:00:48;;;;;;;;;;;;;;;7.85;100.00;100786.94;5083201;28;19951;-77
2023/12/23 03:03:14;;;;;;;;;;;;;;;7.87;100.00;100786.94;5073207;28;20019;-77
2023/12/23 03:05:39;;;;;;;;;;;;;;;7.86;100.00;100787.81;5070196;28;19952;-75
2023/12/23 03:08:06;;;;;;;;;;;;;;;7.85;100.00;100789.56;5053057;28;19963;-78
2023/12/23 03:10:32;;;;;;;;;;;;;;;7.84;100.00;100771.31;5055360;28;20381;-78
2023/12/23 03:12:57;;;;;;;;;;;;;;;7.86;100.00;100778.25;5088852;28;19956;-75
2023/12/23 03:15:22;;;;;;;;;;;;;;;7.85;100.00;100773.91;5073786;28;19970;-76
2023/12/23 03:17:48;;;;;;;;;;;;;;;7.79;100.00;100779.16;5096129;28;19917;-76
2023/12/23 03:20:13;;;;;;;;;;;;;;;7.83;100.00;100780.88;5052520;28;20386;-76
2023/12/23 03:22:38;;;;;;;;;;;;;;;7.88;100.00;100767.81;5050807;28;19966;-77
2023/12/23 03:25:04;;;;;;;;;;;;;;;7.90;100.00;100764.34;5056523;28;19924;-78
2023/12/23 03:27:33;;;;;;;;;;;;;;;7.89;100.00;100770.44;5050049;28;20298;-76
2023/12/23 03:29:58;;;;;;;;;;;;;;;7.90;100.00;100776.50;5072959;28;20446;-75
2023/12/23 03:32:24;;;;;;;;;;;;;;;7.89;100.00;100774.78;5053111;28;20030;-75
2023/12/23 03:34:49;;;;;;;;;;;;;;;7.96;100.00;100771.28;5053111;28;19923;-76
2023/12/23 03:37:17;;;;;;;;;;;;;;;8.06;100.00;100762.56;5047641;28;20047;-75
2023/12/23 03:39:42;;;;;;;;;;;;;;;8.06;100.00;100756.44;5065314;28;20401;-75
2023/12/23 03:42:07;;;;;;;;;;;;;;;8.05;100.00;100750.38;5053460;28;19963;-76
2023/12/23 03:44:33;;;;;;;;;;;;;;;8.10;100.00;100750.34;5048028;28;19965;-75
2023/12/23 03:46:58;;;;;;;;;;;;;;;8.10;100.00;100734.69;5084865;28;19997;-76
2023/12/23 03:49:23;;;;;;;;;;;;;;;8.08;100.00;100739.06;5060925;28;20324;-76
2023/12/23 03:51:48;;;;;;;;;;;;;;;8.13;100.00;100743.41;5072249;28;19939;-76
2023/12/23 03:54:14;;;;;;;;;;;;;;;8.16;100.00;100747.75;5059516;28;19923;-76
2023/12/23 03:56:39;;;;;;;;;;;;;;;8.21;100.00;100740.75;5063569;28;19931;-76
2023/12/23 03:59:04;;;;;;;;;;;;;;;8.19;100.00;100752.97;5048945;28;19924;-76
2023/12/23 04:01:30;;;;;;;;;;;;;;;8.22;100.00;100763.38;5045779;28;19921;-74
2023/12/23 04:03:55;;;;;;;;;;;;;;;8.26;100.00;100759.00;5065043;28;19962;-75
2023/12/23 04:06:20;;;;;;;;;;;;;;;8.19;100.00;100741.63;5068665;28;19916;-76
2023/12/23 04:08:46;;;;;;;;;;;;;;;8.22;100.00;100746.88;5054130;28;19924;-77
2023/12/23 04:11:11;;;;;;;;;;;;;;;8.19;100.00;100746.84;5055752;28;19916;-76
2023/12/23 04:13:37;;;;;;;;;;;;;;;8.29;100.00;100735.53;5058437;28;19924;-75
2023/12/23 04:16:05;;;;;;;;;;;;;;;8.22;100.00;100725.97;5072274;28;20014;-76
2023/12/23 04:18:31;;;;;;;;;;;;;;;8.23;100.00;100731.19;5084622;28;19933;-73
2023/12/23 04:20:57;;;;;;;;;;;;;;;8.26;100.00;100732.91;5051874;28;20287;-78
2023/12/23 04:23:24;;;;;;;;;;;;;;;8.27;100.00;100727.66;5055352;28;19928;-78
2023/12/23 04:25:49;;;;;;;;;;;;;;;8.23;100.00;100719.88;5068109;28;19952;-77
2023/12/23 04:28:17;;;;;;;;;;;;;;;8.23;100.00;100722.47;5094760;28;19983;-80
2023/12/23 04:30:42;;;;;;;;;;;;;;;8.22;100.00;100725.97;5071780;28;20495;-79
2023/12/23 04:33:09;;;;;;;;;;;;;;;8.21;100.00;100701.59;5055167;28;19951;-78
2023/12/23 04:35:41;;;;;;;;;;;;;;;8.25;100.00;100685.06;5055071;28;20336;-76
2023/12/23 04:38:06;;;;;;;;;;;;;;;8.23;100.00;100701.59;5069981;28;20033;-77
2023/12/23 04:40:33;;;;;;;;;;;;;;;8.18;100.00;100687.72;5066297;28;19938;-75
2023/12/23 04:42:58;;;;;;;;;;;;;;;8.23;100.00;100689.44;5071015;28;19932;-76
2023/12/23 04:45:23;;;;;;;;;;;;;;;8.16;100.00;100685.09;5041530;28;19916;-76
2023/12/23 04:47:49;;;;;;;;;;;;;;;8.21;100.00;100688.53;5079721;28;19943;-78
2023/12/23 04:50:14;;;;;;;;;;;;;;;8.24;100.00;100696.34;5055256;28;20376;-75
2023/12/23 04:52:41;;;;;;;;;;;;;;;8.23;100.00;100697.25;5054380;28;19926;-79
2023/12/23 04:55:09;;;;;;;;;;;;;;;8.24;100.00;100688.53;5055275;28;19921;-76
2023/12/23 04:57:34;;;;;;;;;;;;;;;8.21;100.00;100696.38;5059809;28;20282;-75
2023/12/23 05:00:05;;;;;;;;;;;;;;;8.26;100.00;100692.03;5054551;28;19931;-74
2023/12/23 05:02:31;;;;;;;;;;;;;;;8.18;100.00;100703.38;5057648;28;19999;-77
2023/12/23 05:04:58;;;;;;;;;;;;;;;8.22;100.00;100705.09;5059596;28;20019;-75
2023/12/23 05:07:27;;;;;;;;;;;;;;;8.15;100.00;100696.41;5061967;28;19917;-77
2023/12/23 05:09:54;;;;;;;;;;;;;;;8.20;100.00;100699.84;5070935;28;20388;-77
2023/12/23 05:12:22;;;;;;;;;;;;;;;8.19;100.00;100681.59;5069921;28;19972;-76
2023/12/23 05:14:48;;;;;;;;;;;;;;;8.18;100.00;100698.16;5069648;28;19960;-75
2023/12/23 05:17:13;;;;;;;;;;;;;;;8.12;100.00;100689.47;5054755;28;20290;-74
2023/12/23 05:19:39;;;;;;;;;;;;;;;8.15;100.00;100668.56;5065401;28;19924;-77
2023/12/23 05:22:04;;;;;;;;;;;;;;;8.23;100.00;100667.66;5083663;28;19920;-76
2023/12/23 05:24:30;;;;;;;;;;;;;;;8.12;100.00;100667.72;5051525;28;19917;-77
2023/12/23 05:26:55;;;;;;;;;;;;;;;8.20;100.00;100654.63;5059893;28;20015;-78
2023/12/23 05:29:21;;;;;;;;;;;;;;;8.11;100.00;100673.81;5067971;28;19921;-77
2023/12/23 05:31:47;;;;;;;;;;;;;;;8.18;100.00;100675.50;5054047;28;19916;-77
2023/12/23 05:34:12;;;;;;;;;;;;;;;8.16;100.00;100672.06;5048318;28;19924;-79
2023/12/23 05:36:37;;;;;;;;;;;;;;;8.13;100.00;100672.94;5089316;28;19965;-78
2023/12/23 05:39:03;;;;;;;;;;;;;;;8.17;100.00;100652.88;5055994;28;19925;-77
2023/12/23 05:41:28;;;;;;;;;;;;;;;8.20;100.00;100650.25;5054287;28;20041;-76
2023/12/23 05:43:54;;;;;;;;;;;;;;;8.23;100.00;100663.31;5066464;28;19969;-75
2023/12/23 05:46:19;;;;;;;;;;;;;;;8.23;100.00;100660.72;5061541;28;20400;-75
2023/12/23 05:48:44;;;;;;;;;;;;;;;8.20;100.00;100644.19;5083353;28;19921;-75
2023/12/23 05:51:10;;;;;;;;;;;;;;;8.24;100.00;100662.41;5071782;28;19943;-76
2023/12/23 05:53:41;;;;;;;;;;;;;;;8.30;100.00;100671.97;5081079;28;19958;-75
2023/12/23 05:56:09;;;;;;;;;;;;;;;8.27;100.00;100661.53;5054526;28;20290;-73
2023/12/23 05:58:34;;;;;;;;;;;;;;;8.30;100.00;100661.53;5054159;28;19916;-77
2023/12/23 06:01:00;;;;;;;;;;;;;;;8.37;100.00;100667.59;5050692;28;19924;-76
2023/12/23 06:03:26;;;;;;;;;;;;;;;8.27;100.00;100664.16;5055061;28;20026;-75
2023/12/23 06:05:51;;;;;;;;;;;;;;;8.35;100.00;100659.78;5069357;28;19916;-76
2023/12/23 06:08:16;;;;;;;;;;;;;;;8.27;100.00;100672.84;5067866;28;19916;-78
2023/12/23 06:10:41;;;;;;;;;;;;;;;8.32;100.00;100665.88;5070754;28;20015;-77
2023/12/23 06:13:07;;;;;;;;;;;;;;;8.29;100.00;100665.88;5085314;28;19959;-75
2023/12/23 06:15:32;;;;;;;;;;;;;;;8.30;100.00;100662.41;5033822;28;19920;-75
2023/12/23 06:17:58;;;;;;;;;;;;;;;8.42;100.00;100665.81;5064998;28;19916;-76
2023/12/23 06:20:23;;;;;;;;;;;;;;;8.30;100.00;100659.81;5074528;28;19917;-74
2023/12/23 06:22:55;;;;;;;;;;;;;;;8.25;100.00;100664.16;5074451;28;19948;-74
2023/12/23 06:25:20;;;;;;;;;;;;;;;8.24;100.00;100661.56;5072608;28;19931;-74
2023/12/23 06:27:45;;;;;;;;;;;;;;;8.26;100.00;100659.81;5069666;28;19920;-75
2023/12/23 06:30:11;;;;;;;;;;;;;;;8.23;100.00;100668.53;5062351;28;19973;-75
2023/12/23 06:32:37;;;;;;;;;;;;;;;8.25;100.00;100666.78;5059571;28;19920;-76
2023/12/23 06:35:02;;;;;;;;;;;;;;;8.15;100.00;100678.13;5058465;28;19927;-76
2023/12/23 06:37:28;;;;;;;;;;;;;;;8.14;100.00;100679.88;5074112;28;19981;-75
2023/12/23 06:39:53;;;;;;;;;;;;;;;8.14;100.00;100672.03;5071332;28;20475;-75
2023/12/23 06:42:18;;;;;;;;;;;;;;;8.14;100.00;100679.00;5058681;28;20014;-75
2023/12/23 06:44:44;;;;;;;;;;;;;;;8.19;100.00;100666.81;5062048;28;19971;-74
2023/12/23 06:47:09;;;;;;;;;;;;;;;8.22;100.00;100661.56;5041241;28;19947;-75
2023/12/23 06:49:37;;;;;;;;;;;;;;;8.24;100.00;100662.41;5041897;28;19925;-75
2023/12/23 06:52:04;;;;;;;;;;;;;;;8.37;100.00;100663.22;5076187;28;19912;-75
2023/12/23 06:54:29;;;;;;;;;;;;;;;8.27;100.00;100665.00;5056454;28;19916;-75
2023/12/23 06:56:55;;;;;;;;;;;;;;;8.24;100.00;100662.41;5048957;28;20365;-75
2023/12/23 06:59:20;;;;;;;;;;;;;;;8.31;100.00;100664.13;5057865;28;20050;-75
2023/12/23 07:01:45;;;;;;;;;;;;;;;8.26;100.00;100655.47;5075559;28;19921;-75
2023/12/23 07:04:11;;;;;;;;;;;;;;;8.31;100.00;100658.91;5075280;28;19924;-74
2023/12/23 07:06:36;;;;;;;;;;;;;;;8.28;100.00;100652.84;5073238;28;20293;-74
2023/12/23 07:09:02;;;;;;;;;;;;;;;8.36;100.00;100656.28;5072875;28;19970;-74
2023/12/23 07:13:59;;;;;;;;;;;;;;;8.38;100.00;100654.53;5052694;28;19936;-76
2023/12/23 07:16:24;;;;;;;;;;;;;;;8.48;100.00;100663.22;5053597;28;19928;-75
2023/12/23 07:18:49;;;;;;;;;;;;;;;8.41;100.00;100637.97;5046941;28;19944;-74
2023/12/23 07:21:15;;;;;;;;;;;;;;;8.42;100.00;100645.81;5017388;28;19921;-75
2023/12/23 07:23:40;;;;;;;;;;;;;;;8.47;100.00;100658.84;5047987;28;19927;-75
2023/12/23 07:26:09;;;;;;;;;;;;;;;8.47;100.00;100670.16;5037170;28;19917;-76
2023/12/23 07:28:34;;;;;;;;;;;;;;;8.44;100.00;100664.06;5048111;28;20415;-75
2023/12/23 07:31:00;;;;;;;;;;;;;;;8.49;100.00;100662.31;5053858;28;19921;-74
2023/12/23 07:33:25;;;;;;;;;;;;;;;8.46;100.00;100665.84;5052563;28;19923;-74
2023/12/23 07:35:50;;;;;;;;;;;;;;;8.53;100.00;100663.19;5028133;28;19921;-75
2023/12/23 07:38:17;;;;;;;;;;;;;;;8.57;100.00;100672.72;5137263;23;19946;-75
2023/12/23 07:40:42;;;;;;;;;;;;;;;8.62;100.00;100677.06;5116181;27;20424;-76
2023/12/23 07:43:08;;;;;;;;;;;;;;;8.64;100.00;100669.19;5077838;28;19920;-73
2023/12/23 07:45:34;;;;;;;;;;;;;;;8.69;100.00;100661.31;5076588;28;20025;-76
2023/12/23 07:47:59;;;;;;;;;;;;;;;8.77;100.00;100667.38;5076169;28;19993;-75
2023/12/23 07:50:24;;;;;;;;;;;;;;;8.62;100.00;100674.44;5079900;28;19920;-76
2023/12/23 07:52:50;;;;;;;;;;;;;;;8.67;100.00;100662.19;5096059;27;19924;-74
2023/12/23 07:55:15;;;;;;;;;;;;;;;8.73;100.00;100650.84;5100309;27;20385;-75
2023/12/23 07:57:42;;;;;;;;;;;;;;;8.82;100.00;100663.84;5099711;27;19936;-77
2023/12/23 08:00:08;;;;;;;;;;;;;;;8.76;100.00;100681.31;5100247;27;19926;-76
2023/12/23 08:02:34;;;;;;;;;;;;;;;8.76;100.00;100674.31;5111501;28;20364;-75
2023/12/23 08:04:59;;;;;;;;;;;;;;;8.80;100.00;100672.56;5082541;28;20332;-78
2023/12/23 08:07:28;;;;;;;;;;;;;;;8.87;100.00;100673.41;5059076;28;19920;-75
2023/12/23 08:09:54;;;;;;;;;;;;;;;8.89;100.00;100682.09;5076243;28;20293;-75
2023/12/23 08:12:23;;;;;;;;;;;;;;;8.82;100.00;100686.47;5091215;27;19924;-77
2023/12/23 08:14:49;;;;;;;;;;;;;;;8.84;100.00;100676.91;5059806;28;19943;-75
2023/12/23 08:17:14;;;;;;;;;;;;;;;8.85;100.00;100668.19;5069761;28;20451;-80
2023/12/23 08:19:39;;;;;;;;;;;;;;;8.91;100.00;100680.34;5089723;28;19930;-78
2023/12/23 08:22:05;;;;;;;;;;;;;;;8.91;100.00;100691.66;5085288;27;19922;-75
2023/12/23 08:24:30;;;;;;;;;;;;;;;8.90;100.00;100684.69;5086989;28;19920;-77
2023/12/23 08:26:56;;;;;;;;;;;;;;;8.89;100.00;100676.88;5075517;28;20319;-76
2023/12/23 08:29:21;;;;;;;;;;;;;;;8.93;100.00;100684.66;5059324;28;19920;-76
2023/12/23 08:31:50;;;;;;;;;;;;;;;9.00;100.00;100660.22;5063739;28;19964;-75
2023/12/23 08:34:16;;;;;;;;;;;;;;;9.04;100.00;100671.53;5097409;27;19962;-76
2023/12/23 08:36:42;;;;;;;;;;;;;;;9.01;100.00;100677.63;5067521;28;19924;-74
2023/12/23 08:39:07;;;;;;;;;;;;;;;9.00;100.00;100677.66;5074406;28;19969;-75
2023/12/23 08:41:35;;;;;;;;;;;;;;;9.10;100.00;100692.38;5085875;28;20014;-75
2023/12/23 08:44:01;;;;;;;;;;;;;;;9.06;100.00;100702.88;5094111;27;19972;-76
2023/12/23 08:46:26;;;;;;;;;;;;;;;9.06;100.00;100705.50;5077818;28;19924;-76
2023/12/23 08:48:54;;;;;;;;;;;;;;;9.03;100.00;100690.69;5078603;28;19927;-75
2023/12/23 08:51:20;;;;;;;;;;;;;;;9.01;100.00;100695.06;5074910;28;19920;-75
2023/12/23 08:53:45;;;;;;;;;;;;;;;9.16;100.00;100694.06;5061514;28;19923;-74
2023/12/23 08:56:11;;;;;;;;;;;;;;;9.08;100.00;100708.94;5075402;28;20290;-76
2023/12/23 08:58:36;;;;;;;;;;;;;;;9.11;100.00;100719.41;5067965;28;19916;-75
2023/12/23 09:01:01;;;;;;;;;;;;;;;9.18;100.00;100700.19;5074841;27;20330;-75
2023/12/23 09:03:30;;;;;;;;;;;;;;;9.11;100.00;100691.50;5094039;28;20322;-75
2023/12/23 09:05:56;;;;;;;;;;;;;;;9.15;100.00;100708.03;5113864;28;19926;-75
2023/12/23 09:08:22;;;;;;;;;;;;;;;9.18;100.00;100710.63;5084425;27;20007;-76
2023/12/23 09:10:49;;;;;;;;;;;;;;;9.14;100.00;100735.06;5075649;27;20014;-77
2023/12/23 09:13:16;;;;;;;;;;;;;;;9.07;100.00;100725.53;5080870;28;19916;-78
2023/12/23 09:15:44;;;;;;;;;;;;;;;8.93;100.00;100741.31;5070581;28;19966;-76
2023/12/23 09:18:10;;;;;;;;;;;;;;;8.86;100.00;100729.16;5082064;28;19916;-75
2023/12/23 09:20:35;;;;;;;;;;;;;;;8.81;100.00;100739.63;5072610;28;20282;-76
2023/12/23 09:23:00;;;;;;;;;;;;;;;8.76;100.00;100754.47;5082682;28;20063;-76
2023/12/23 09:25:28;;;;;;;;;;;;;;;8.66;100.00;100745.81;5078136;28;19924;-75
2023/12/23 09:27:53;;;;;;;;;;;;;;;8.67;100.00;100744.94;5074799;28;19916;-75
2023/12/23 09:30:20;;;;;;;;;;;;;;;8.66;100.00;100743.19;5089648;27;19941;-76
2023/12/23 09:32:45;;;;;;;;;;;;;;;8.65;100.00;100747.56;5077681;27;19928;-75
2023/12/23 09:35:11;;;;;;;;;;;;;;;8.58;100.00;100739.78;5090630;28;19976;-75
2023/12/23 09:37:36;;;;;;;;;;;;;;;8.67;100.00;100750.16;5083657;28;19935;-76
2023/12/23 09:40:04;;;;;;;;;;;;;;;8.75;100.00;100756.22;5075061;28;20403;-74
2023/12/23 09:42:29;;;;;;;;;;;;;;;8.71;100.00;100740.56;5091192;28;19920;-75
2023/12/23 09:44:54;;;;;;;;;;;;;;;8.75;100.00;100748.38;5074107;28;19923;-76
2023/12/23 09:47:20;;;;;;;;;;;;;;;8.73;100.00;100757.94;5078122;28;19963;-74
2023/12/23 09:49:45;;;;;;;;;;;;;;;8.74;100.00;100753.63;5108654;28;19920;-77
2023/12/23 09:52:11;;;;;;;;;;;;;;;8.72;100.00;100774.53;5089961;28;20002;-77
2023/12/23 09:54:38;;;;;;;;;;;;;;;8.74;100.00;100782.34;5104983;28;19924;-79
2023/12/23 09:57:03;;;;;;;;;;;;;;;8.78;100.00;100774.50;5098065;28;20293;-75
2023/12/23 09:59:30;;;;;;;;;;;;;;;8.84;100.00;100776.19;5088916;28;19920;-74
2023/12/23 10:01:56;;;;;;;;;;;;;;;8.82;100.00;100764.88;5086814;28;20061;-76
2023/12/23 10:04:21;;;;;;;;;;;;;;;8.88;100.00;100772.69;5090726;28;19955;-76
2023/12/23 10:06:46;;;;;;;;;;;;;;;8.89;100.00;100778.78;5092468;28;19964;-75
2023/12/23 10:09:11;;;;;;;;;;;;;;;8.96;100.00;100785.72;5091063;28;19922;-74
2023/12/23 10:11:37;;;;;;;;;;;;;;;9.04;100.00;100780.41;5072486;28;19947;-78
2023/12/23 10:14:02;;;;;;;;;;;;;;;9.02;100.00;100780.44;5073837;28;19920;-76
2023/12/23 10:16:27;;;;;;;;;;;;;;;9.08;100.00;100777.81;5069811;28;20361;-74
2023/12/23 10:18:53;;;;;;;;;;;;;;;9.13;100.00;100775.16;5071862;28;19932;-77
2023/12/23 10:21:19;;;;;;;;;;;;;;;9.08;100.00;100766.47;5074702;28;19955;-77
2023/12/23 10:23:45;;;;;;;;;;;;;;;9.02;100.00;100767.38;5072417;28;20265;-75
2023/12/23 10:26:12;;;;;;;;;;;;;;;9.16;100.00;100769.91;5069941;28;19916;-74
2023/12/23 10:28:41;;;;;;;;;;;;;;;9.15;100.00;100765.53;5099639;28;20294;-77
2023/12/23 10:31:10;;;;;;;;;;;;;;;9.16;100.00;100759.44;5089118;28;20361;-76
2023/12/23 10:33:41;;;;;;;;;;;;;;;9.19;100.00;100757.69;5089573;28;19919;-76
2023/12/23 10:36:09;;;;;;;;;;;;;;;9.22;100.00;100763.75;5088052;28;19965;-74
2023/12/23 10:38:35;;;;;;;;;;;;;;;9.22;100.00;100767.22;5086188;28;19931;-76
2023/12/23 10:41:31;;;;;;;;;;;;;;;9.34;100.00;100763.69;5070962;28;19929;-74
2023/12/23 10:43:56;;;;;;;;;;;;;;;9.43;98.49;100765.34;5082443;28;20296;-77
2023/12/23 10:46:26;;;;;;;;;;;;;;;9.46;98.64;100773.16;5069886;28;20394;-77
2023/12/23 10:48:52;;;;;;;;;;;;;;;9.48;98.60;100768.78;5087750;28;20007;-76
2023/12/23 10:51:21;;;;;;;;;;;;;;;9.54;99.47;100755.66;5082816;28;19999;-75
2023/12/23 10:53:46;;;;;;;;;;;;;;;9.63;97.49;100737.25;5086108;28;20313;-75
2023/12/23 10:56:12;;;;;;;;;;;;;;;9.68;96.74;100737.19;5089653;28;19916;-76
2023/12/23 10:58:39;;;;;;;;;;;;;;;9.71;96.85;100742.41;5072374;28;19931;-75
2023/12/23 11:01:06;;;;;;;;;;;;;;;9.76;96.79;100745.84;5083149;28;19924;-75
2023/12/23 11:03:32;;;;;;;;;;;;;;;9.82;96.52;100747.53;5086874;28;20267;-76
2023/12/23 11:05:58;;;;;;;;;;;;;;;9.81;95.59;100753.66;5082617;28;20446;-76
2023/12/23 11:08:25;;;;;;;;;;;;;;;9.88;94.70;100750.97;5083771;28;20023;-76
2023/12/23 11:10:51;;;;;;;;;;;;;;;9.91;95.52;100749.19;5086078;28;19921;-74
2023/12/23 11:13:21;;;;;;;;;;;;;;;9.93;95.83;100756.16;5090769;28;20266;-75
2023/12/23 11:15:46;;;;;;;;;;;;;;;9.95;95.84;100767.47;5073114;28;19930;-76
2023/12/23 11:18:12;;;;;;;;;;;;;;;9.94;95.25;100776.22;5067453;28;20007;-75
2023/12/23 11:20:40;;;;;;;;;;;;;;;9.99;94.83;100771.78;5092058;28;19971;-76
2023/12/23 11:23:24;;;;;;;;;;;;;;;10.04;93.63;100762.13;5092143;28;19965;-75
2023/12/23 11:25:50;;;;;;;;;;;;;;;9.96;93.47;100768.34;5085401;28;19920;-76
2023/12/23 11:28:15;;;;;;;;;;;;;;;9.98;94.38;100767.41;5091255;28;19924;-75
2023/12/23 11:30:47;;;;;;;;;;;;;;;9.96;94.44;100770.97;5085462;28;20420;-75
2023/12/23 11:33:18;;;;;;;;;;;;;;;10.05;93.50;100758.63;5084162;28;19923;-76
2023/12/23 11:35:51;;;;;;;;;;;;;;;10.05;93.87;100753.38;5077647;28;19924;-75
2023/12/23 11:38:16;;;;;;;;;;;;;;;10.07;92.61;100756.00;5083368;28;20027;-77
2023/12/23 11:40:42;;;;;;;;;;;;;;;10.09;93.00;100774.31;5075487;28;20519;-77
2023/12/23 11:43:07;;;;;;;;;;;;;;;10.13;91.83;100755.03;5089420;28;19981;-77
2023/12/23 11:45:33;;;;;;;;;;;;;;;10.28;91.20;100765.34;5092913;28;19916;-76
2023/12/23 11:47:58;;;;;;;;;;;;;;;10.17;91.63;100762.88;5075945;28;19927;-79
2023/12/23 11:50:24;;;;;;;;;;;;;;;10.20;90.64;100748.84;5087042;28;19916;-79
2023/12/23 11:52:50;;;;;;;;;;;;;;;10.21;91.26;100759.34;5082825;28;20536;-75
2023/12/23 11:55:16;;;;;;;;;;;;;;;10.31;91.35;100760.06;5074500;28;19945;-77
2023/12/23 11:57:41;;;;;;;;;;;;;;;10.18;91.67;100766.34;5086877;28;19924;-75
2023/12/23 12:00:07;;;;;;;;;;;;;;;10.18;92.08;100775.06;5069030;28;19931;-77
2023/12/23 12:02:33;;;;;;;;;;;;;;;10.23;90.98;100757.56;5071242;28;19934;-75
2023/12/23 12:04:59;;;;;;;;;;;;;;;10.32;90.20;100745.25;5090373;28;19937;-74
2023/12/23 12:07:25;;;;;;;;;;;;;;;10.39;89.46;100745.16;5087973;28;20018;-75
2023/12/23 12:09:50;;;;;;;;;;;;;;;10.45;90.25;100756.47;5085994;28;19938;-77
2023/12/23 12:12:16;;;;;;;;;;;;;;;10.48;90.04;100766.91;5068724;28;19920;-74
2023/12/23 12:14:42;;;;;;;;;;;;;;;10.43;88.61;100745.13;5074307;28;20385;-76
2023/12/23 12:17:07;;;;;;;;;;;;;;;10.45;89.72;100761.72;5070332;28;19926;-76
2023/12/23 12:19:33;;;;;;;;;;;;;;;10.51;89.75;100759.84;5088806;28;19928;-77
2023/12/23 12:21:59;;;;;;;;;;;;;;;10.46;90.18;100766.03;5089758;28;20284;-79
2023/12/23 12:24:24;;;;;;;;;;;;;;;10.46;89.13;100764.31;5076624;28;20436;-74
2023/12/23 12:26:53;;;;;;;;;;;;;;;10.43;90.16;100759.13;5073693;28;19939;-76
2023/12/23 12:29:21;;;;;;;;;;;;;;;10.43;87.98;100753.00;5070754;28;19939;-74
2023/12/23 12:31:51;;;;;;;;;;;;;;;10.39;87.80;100757.41;5088157;28;19939;-76
2023/12/23 12:34:16;;;;;;;;;;;;;;;10.38;89.13;100740.81;5077105;28;19919;-77